sensor_id;sensor_type;location;lat;lon;timestamp;P1;durP1;ratioP1;P2;durP2;ratioP2
7273;SDS011;3678;60.002;17.846;2022-09-27T00:00:34;5.50;;;4.00;;
7273;SDS011;3678;60.002;17.846;2022-09-27T00:03:01;6.03;;;4.27;;
7273;SDS011;3678;60.002;17.846;2022-09-27T00:05:29;5.77;;;3.83;;
7273;SDS011;3678;60.002;17.846;2022-09-27T00:07:58;7.20;;;4.27;;
7273;SDS011;3678;60.002;17.846;2022-09-27T00:10:25;8.07;;;4.80;;
7273;SDS011;3678;60.002;17.846;2022-09-27T00:12:53;5.43;;;3.80;;
7273;SDS011;3678;60.002;17.846;2022-09-27T00:15:20;7.77;;;4.27;;
7273;SDS011;3678;60.002;17.846;2022-09-27T00:17:47;5.07;;;3.70;;
7273;SDS011;3678;60.002;17.846;2022-09-27T00:20:16;7.00;;;4.30;;
7273;SDS011;3678;60.002;17.846;2022-09-27T00:22:43;122.10;;;10.57;;
7273;SDS011;3678;60.002;17.846;2022-09-27T00:25:14;68.73;;;7.33;;
7273;SDS011;3678;60.002;17.846;2022-09-27T00:27:42;4.90;;;3.60;;
7273;SDS011;3678;60.002;17.846;2022-09-27T00:30:09;10.63;;;4.43;;
7273;SDS011;3678;60.002;17.846;2022-09-27T00:32:37;7.10;;;4.03;;
7273;SDS011;3678;60.002;17.846;2022-09-27T00:35:04;7.37;;;4.30;;
7273;SDS011;3678;60.002;17.846;2022-09-27T00:37:32;6.60;;;4.27;;
7273;SDS011;3678;60.002;17.846;2022-09-27T00:39:59;8.10;;;5.20;;
7273;SDS011;3678;60.002;17.846;2022-09-27T00:42:28;6.07;;;4.00;;
7273;SDS011;3678;60.002;17.846;2022-09-27T00:45:00;7.03;;;4.47;;
7273;SDS011;3678;60.002;17.846;2022-09-27T00:47:29;6.07;;;4.43;;
7273;SDS011;3678;60.002;17.846;2022-09-27T00:50:01;4.50;;;3.60;;
7273;SDS011;3678;60.002;17.846;2022-09-27T00:52:30;5.50;;;4.10;;
7273;SDS011;3678;60.002;17.846;2022-09-27T00:55:03;5.83;;;4.27;;
7273;SDS011;3678;60.002;17.846;2022-09-27T00:57:34;6.00;;;4.97;;
7273;SDS011;3678;60.002;17.846;2022-09-27T01:00:04;7.07;;;4.77;;
7273;SDS011;3678;60.002;17.846;2022-09-27T01:02:31;5.53;;;4.27;;
7273;SDS011;3678;60.002;17.846;2022-09-27T01:05:00;7.27;;;4.57;;
7273;SDS011;3678;60.002;17.846;2022-09-27T01:07:27;5.17;;;3.97;;
7273;SDS011;3678;60.002;17.846;2022-09-27T01:09:55;6.87;;;4.47;;
7273;SDS011;3678;60.002;17.846;2022-09-27T01:12:23;10.47;;;4.83;;
7273;SDS011;3678;60.002;17.846;2022-09-27T01:14:58;7.73;;;4.33;;
7273;SDS011;3678;60.002;17.846;2022-09-27T01:17:30;9.33;;;4.60;;
7273;SDS011;3678;60.002;17.846;2022-09-27T01:20:07;7.53;;;4.47;;
7273;SDS011;3678;60.002;17.846;2022-09-27T01:22:40;15.40;;;4.80;;
7273;SDS011;3678;60.002;17.846;2022-09-27T01:25:12;6.73;;;4.13;;
7273;SDS011;3678;60.002;17.846;2022-09-27T01:28:03;23.30;;;5.47;;
7273;SDS011;3678;60.002;17.846;2022-09-27T01:30:37;10.47;;;3.80;;
7273;SDS011;3678;60.002;17.846;2022-09-27T01:33:13;57.83;;;6.40;;
7273;SDS011;3678;60.002;17.846;2022-09-27T01:35:47;186.03;;;13.40;;
7273;SDS011;3678;60.002;17.846;2022-09-27T01:38:20;174.03;;;13.27;;
7273;SDS011;3678;60.002;17.846;2022-09-27T01:40:50;74.20;;;7.90;;
7273;SDS011;3678;60.002;17.846;2022-09-27T01:43:20;9.80;;;3.73;;
7273;SDS011;3678;60.002;17.846;2022-09-27T01:45:50;15.03;;;4.27;;
7273;SDS011;3678;60.002;17.846;2022-09-27T01:48:20;43.97;;;7.03;;
7273;SDS011;3678;60.002;17.846;2022-09-27T01:50:49;17.07;;;4.17;;
7273;SDS011;3678;60.002;17.846;2022-09-27T01:53:18;4.30;;;3.53;;
7273;SDS011;3678;60.002;17.846;2022-09-27T01:55:46;7.10;;;4.30;;
7273;SDS011;3678;60.002;17.846;2022-09-27T01:58:16;5.13;;;4.07;;
7273;SDS011;3678;60.002;17.846;2022-09-27T02:00:46;5.67;;;4.33;;
7273;SDS011;3678;60.002;17.846;2022-09-27T02:03:17;8.53;;;4.20;;
7273;SDS011;3678;60.002;17.846;2022-09-27T02:05:46;6.37;;;4.00;;
7273;SDS011;3678;60.002;17.846;2022-09-27T02:08:19;7.87;;;4.13;;
7273;SDS011;3678;60.002;17.846;2022-09-27T02:10:47;7.63;;;4.13;;
7273;SDS011;3678;60.002;17.846;2022-09-27T02:13:16;6.57;;;4.07;;
7273;SDS011;3678;60.002;17.846;2022-09-27T02:15:47;5.97;;;4.00;;
7273;SDS011;3678;60.002;17.846;2022-09-27T02:18:17;6.00;;;4.40;;
7273;SDS011;3678;60.002;17.846;2022-09-27T02:20:48;8.87;;;4.60;;
7273;SDS011;3678;60.002;17.846;2022-09-27T02:23:17;9.13;;;4.93;;
7273;SDS011;3678;60.002;17.846;2022-09-27T02:25:45;8.80;;;4.47;;
7273;SDS011;3678;60.002;17.846;2022-09-27T02:28:17;8.83;;;4.73;;
7273;SDS011;3678;60.002;17.846;2022-09-27T02:30:47;7.53;;;4.00;;
7273;SDS011;3678;60.002;17.846;2022-09-27T02:33:14;8.23;;;4.27;;
7273;SDS011;3678;60.002;17.846;2022-09-27T02:35:43;11.67;;;4.43;;
7273;SDS011;3678;60.002;17.846;2022-09-27T02:38:11;7.07;;;4.50;;
7273;SDS011;3678;60.002;17.846;2022-09-27T02:40:41;5.90;;;3.73;;
7273;SDS011;3678;60.002;17.846;2022-09-27T02:43:09;7.13;;;3.50;;
7273;SDS011;3678;60.002;17.846;2022-09-27T02:45:38;5.80;;;3.60;;
7273;SDS011;3678;60.002;17.846;2022-09-27T02:48:09;4.83;;;3.30;;
7273;SDS011;3678;60.002;17.846;2022-09-27T02:50:45;5.60;;;3.47;;
7273;SDS011;3678;60.002;17.846;2022-09-27T02:53:20;11.20;;;4.30;;
7273;SDS011;3678;60.002;17.846;2022-09-27T02:55:54;6.03;;;3.33;;
7273;SDS011;3678;60.002;17.846;2022-09-27T02:58:26;8.57;;;3.10;;
7273;SDS011;3678;60.002;17.846;2022-09-27T03:01:00;6.53;;;3.10;;
7273;SDS011;3678;60.002;17.846;2022-09-27T03:03:32;12.43;;;4.07;;
7273;SDS011;3678;60.002;17.846;2022-09-27T03:06:03;6.13;;;3.17;;
7273;SDS011;3678;60.002;17.846;2022-09-27T03:08:31;5.23;;;3.07;;
7273;SDS011;3678;60.002;17.846;2022-09-27T03:10:58;7.20;;;3.53;;
7273;SDS011;3678;60.002;17.846;2022-09-27T03:13:25;17.07;;;4.53;;
7273;SDS011;3678;60.002;17.846;2022-09-27T03:15:53;6.63;;;3.27;;
7273;SDS011;3678;60.002;17.846;2022-09-27T03:18:20;27.57;;;4.43;;
7273;SDS011;3678;60.002;17.846;2022-09-27T03:20:48;5.90;;;3.40;;
7273;SDS011;3678;60.002;17.846;2022-09-27T03:23:16;25.67;;;4.17;;
7273;SDS011;3678;60.002;17.846;2022-09-27T03:25:43;4.47;;;3.10;;
7273;SDS011;3678;60.002;17.846;2022-09-27T03:28:11;7.40;;;3.30;;
7273;SDS011;3678;60.002;17.846;2022-09-27T03:30:38;6.80;;;4.20;;
7273;SDS011;3678;60.002;17.846;2022-09-27T03:33:06;6.00;;;3.70;;
7273;SDS011;3678;60.002;17.846;2022-09-27T03:35:34;7.43;;;3.50;;
7273;SDS011;3678;60.002;17.846;2022-09-27T03:38:02;7.00;;;3.57;;
7273;SDS011;3678;60.002;17.846;2022-09-27T03:40:30;10.53;;;3.50;;
7273;SDS011;3678;60.002;17.846;2022-09-27T03:42:57;4.33;;;3.00;;
7273;SDS011;3678;60.002;17.846;2022-09-27T03:45:25;5.87;;;3.10;;
7273;SDS011;3678;60.002;17.846;2022-09-27T03:47:52;14.50;;;4.13;;
7273;SDS011;3678;60.002;17.846;2022-09-27T03:50:20;4.87;;;3.33;;
7273;SDS011;3678;60.002;17.846;2022-09-27T03:52:47;7.17;;;4.23;;
7273;SDS011;3678;60.002;17.846;2022-09-27T03:55:14;8.23;;;3.93;;
7273;SDS011;3678;60.002;17.846;2022-09-27T03:57:44;8.43;;;3.70;;
7273;SDS011;3678;60.002;17.846;2022-09-27T04:00:12;4.53;;;3.00;;
7273;SDS011;3678;60.002;17.846;2022-09-27T04:02:39;5.47;;;3.10;;
7273;SDS011;3678;60.002;17.846;2022-09-27T04:05:07;6.23;;;3.57;;
7273;SDS011;3678;60.002;17.846;2022-09-27T04:07:34;8.90;;;3.67;;
7273;SDS011;3678;60.002;17.846;2022-09-27T04:10:02;7.37;;;4.40;;
7273;SDS011;3678;60.002;17.846;2022-09-27T04:12:29;8.00;;;3.80;;
7273;SDS011;3678;60.002;17.846;2022-09-27T04:14:58;7.57;;;4.37;;
7273;SDS011;3678;60.002;17.846;2022-09-27T04:17:25;12.90;;;4.10;;
7273;SDS011;3678;60.002;17.846;2022-09-27T04:19:52;10.10;;;4.77;;
7273;SDS011;3678;60.002;17.846;2022-09-27T04:22:20;9.20;;;4.83;;
7273;SDS011;3678;60.002;17.846;2022-09-27T04:24:47;12.30;;;4.47;;
7273;SDS011;3678;60.002;17.846;2022-09-27T04:27:15;9.20;;;4.43;;
7273;SDS011;3678;60.002;17.846;2022-09-27T04:29:42;8.27;;;4.37;;
7273;SDS011;3678;60.002;17.846;2022-09-27T04:32:11;10.33;;;4.10;;
7273;SDS011;3678;60.002;17.846;2022-09-27T04:34:38;7.43;;;4.00;;
7273;SDS011;3678;60.002;17.846;2022-09-27T04:37:23;8.73;;;4.40;;
7273;SDS011;3678;60.002;17.846;2022-09-27T04:39:50;11.33;;;4.43;;
7273;SDS011;3678;60.002;17.846;2022-09-27T04:42:18;10.03;;;3.73;;
7273;SDS011;3678;60.002;17.846;2022-09-27T04:44:45;9.80;;;4.87;;
7273;SDS011;3678;60.002;17.846;2022-09-27T04:47:14;14.98;;;6.80;;
7273;SDS011;3678;60.002;17.846;2022-09-27T04:49:42;12.33;;;5.70;;
7273;SDS011;3678;60.002;17.846;2022-09-27T04:52:09;11.63;;;5.40;;
7273;SDS011;3678;60.002;17.846;2022-09-27T04:54:36;9.73;;;4.83;;
7273;SDS011;3678;60.002;17.846;2022-09-27T04:57:04;8.83;;;4.87;;
7273;SDS011;3678;60.002;17.846;2022-09-27T04:59:31;12.60;;;5.17;;
7273;SDS011;3678;60.002;17.846;2022-09-27T05:01:58;11.03;;;4.87;;
7273;SDS011;3678;60.002;17.846;2022-09-27T05:04:27;11.07;;;4.53;;
7273;SDS011;3678;60.002;17.846;2022-09-27T05:06:54;8.27;;;4.17;;
7273;SDS011;3678;60.002;17.846;2022-09-27T05:09:21;10.20;;;5.40;;
7273;SDS011;3678;60.002;17.846;2022-09-27T05:11:48;9.73;;;4.53;;
7273;SDS011;3678;60.002;17.846;2022-09-27T05:14:15;9.00;;;4.50;;
7273;SDS011;3678;60.002;17.846;2022-09-27T05:16:43;11.60;;;4.70;;
7273;SDS011;3678;60.002;17.846;2022-09-27T05:19:10;12.53;;;5.40;;
7273;SDS011;3678;60.002;17.846;2022-09-27T05:21:39;9.30;;;5.07;;
7273;SDS011;3678;60.002;17.846;2022-09-27T05:24:07;13.87;;;5.80;;
7273;SDS011;3678;60.002;17.846;2022-09-27T05:26:34;9.97;;;4.93;;
7273;SDS011;3678;60.002;17.846;2022-09-27T05:29:01;10.00;;;4.93;;
7273;SDS011;3678;60.002;17.846;2022-09-27T05:31:28;9.93;;;4.70;;
7273;SDS011;3678;60.002;17.846;2022-09-27T05:33:56;11.30;;;5.97;;
7273;SDS011;3678;60.002;17.846;2022-09-27T05:36:23;11.87;;;5.20;;
7273;SDS011;3678;60.002;17.846;2022-09-27T05:38:51;9.83;;;5.33;;
7273;SDS011;3678;60.002;17.846;2022-09-27T05:41:18;7.83;;;5.03;;
7273;SDS011;3678;60.002;17.846;2022-09-27T05:43:46;11.77;;;4.37;;
7273;SDS011;3678;60.002;17.846;2022-09-27T05:46:13;11.00;;;4.60;;
7273;SDS011;3678;60.002;17.846;2022-09-27T05:48:40;9.07;;;4.20;;
7273;SDS011;3678;60.002;17.846;2022-09-27T05:51:07;10.27;;;5.40;;
7273;SDS011;3678;60.002;17.846;2022-09-27T05:53:35;7.93;;;4.37;;
7273;SDS011;3678;60.002;17.846;2022-09-27T05:56:03;6.77;;;4.37;;
7273;SDS011;3678;60.002;17.846;2022-09-27T05:58:31;7.53;;;4.13;;
7273;SDS011;3678;60.002;17.846;2022-09-27T06:00:58;9.83;;;4.33;;
7273;SDS011;3678;60.002;17.846;2022-09-27T06:03:25;6.43;;;3.70;;
7273;SDS011;3678;60.002;17.846;2022-09-27T06:05:53;6.73;;;3.33;;
7273;SDS011;3678;60.002;17.846;2022-09-27T06:08:20;8.80;;;3.10;;
7273;SDS011;3678;60.002;17.846;2022-09-27T06:10:47;7.43;;;3.20;;
7273;SDS011;3678;60.002;17.846;2022-09-27T06:13:16;7.37;;;3.10;;
7273;SDS011;3678;60.002;17.846;2022-09-27T06:15:44;7.03;;;3.13;;
7273;SDS011;3678;60.002;17.846;2022-09-27T06:18:12;7.70;;;3.27;;
7273;SDS011;3678;60.002;17.846;2022-09-27T06:20:41;6.07;;;3.10;;
7273;SDS011;3678;60.002;17.846;2022-09-27T06:23:09;6.07;;;2.77;;
7273;SDS011;3678;60.002;17.846;2022-09-27T06:25:37;6.00;;;2.80;;
7273;SDS011;3678;60.002;17.846;2022-09-27T06:28:04;4.67;;;2.20;;
7273;SDS011;3678;60.002;17.846;2022-09-27T06:30:36;5.57;;;2.50;;
7273;SDS011;3678;60.002;17.846;2022-09-27T06:33:04;5.97;;;2.23;;
7273;SDS011;3678;60.002;17.846;2022-09-27T06:35:31;4.53;;;2.33;;
7273;SDS011;3678;60.002;17.846;2022-09-27T06:38:01;4.23;;;2.13;;
7273;SDS011;3678;60.002;17.846;2022-09-27T06:40:29;6.03;;;2.37;;
7273;SDS011;3678;60.002;17.846;2022-09-27T06:43:00;8.53;;;2.30;;
7273;SDS011;3678;60.002;17.846;2022-09-27T06:45:27;3.85;;;2.20;;
7273;SDS011;3678;60.002;17.846;2022-09-27T06:47:57;4.47;;;2.60;;
7273;SDS011;3678;60.002;17.846;2022-09-27T06:50:26;8.60;;;2.03;;
7273;SDS011;3678;60.002;17.846;2022-09-27T06:52:53;4.53;;;2.30;;
7273;SDS011;3678;60.002;17.846;2022-09-27T06:55:21;3.80;;;1.97;;
7273;SDS011;3678;60.002;17.846;2022-09-27T06:57:48;2.70;;;2.00;;
7273;SDS011;3678;60.002;17.846;2022-09-27T07:00:33;4.20;;;1.90;;
7273;SDS011;3678;60.002;17.846;2022-09-27T07:03:01;3.40;;;1.87;;
7273;SDS011;3678;60.002;17.846;2022-09-27T07:05:29;6.20;;;1.97;;
7273;SDS011;3678;60.002;17.846;2022-09-27T07:07:56;2.07;;;1.80;;
7273;SDS011;3678;60.002;17.846;2022-09-27T07:10:24;3.60;;;1.90;;
7273;SDS011;3678;60.002;17.846;2022-09-27T07:12:52;3.30;;;1.87;;
7273;SDS011;3678;60.002;17.846;2022-09-27T07:15:20;4.27;;;1.70;;
7273;SDS011;3678;60.002;17.846;2022-09-27T07:17:47;2.43;;;1.73;;
7273;SDS011;3678;60.002;17.846;2022-09-27T07:20:16;3.90;;;1.20;;
7273;SDS011;3678;60.002;17.846;2022-09-27T07:22:43;4.83;;;1.63;;
7273;SDS011;3678;60.002;17.846;2022-09-27T07:25:10;2.70;;;1.43;;
7273;SDS011;3678;60.002;17.846;2022-09-27T07:27:38;4.13;;;1.67;;
7273;SDS011;3678;60.002;17.846;2022-09-27T07:30:06;4.07;;;1.20;;
7273;SDS011;3678;60.002;17.846;2022-09-27T07:32:34;1.90;;;1.20;;
7273;SDS011;3678;60.002;17.846;2022-09-27T07:35:01;4.30;;;1.30;;
7273;SDS011;3678;60.002;17.846;2022-09-27T07:37:31;5.72;;;1.58;;
7273;SDS011;3678;60.002;17.846;2022-09-27T07:39:59;1.80;;;1.10;;
7273;SDS011;3678;60.002;17.846;2022-09-27T07:42:27;3.53;;;1.40;;
7273;SDS011;3678;60.002;17.846;2022-09-27T07:44:55;2.00;;;1.13;;
7273;SDS011;3678;60.002;17.846;2022-09-27T07:47:22;4.10;;;1.90;;
7273;SDS011;3678;60.002;17.846;2022-09-27T07:49:50;2.77;;;1.20;;
7273;SDS011;3678;60.002;17.846;2022-09-27T07:52:17;4.50;;;1.20;;
7273;SDS011;3678;60.002;17.846;2022-09-27T07:54:46;2.63;;;1.27;;
7273;SDS011;3678;60.002;17.846;2022-09-27T07:57:13;2.73;;;1.23;;
7273;SDS011;3678;60.002;17.846;2022-09-27T07:59:40;2.70;;;1.17;;
7273;SDS011;3678;60.002;17.846;2022-09-27T08:02:08;4.33;;;1.47;;
7273;SDS011;3678;60.002;17.846;2022-09-27T08:04:39;2.40;;;1.13;;
7273;SDS011;3678;60.002;17.846;2022-09-27T08:07:07;4.70;;;1.30;;
7273;SDS011;3678;60.002;17.846;2022-09-27T08:09:34;3.07;;;1.20;;
7273;SDS011;3678;60.002;17.846;2022-09-27T08:12:03;2.73;;;1.20;;
7273;SDS011;3678;60.002;17.846;2022-09-27T08:14:30;2.37;;;1.13;;
7273;SDS011;3678;60.002;17.846;2022-09-27T08:16:57;2.23;;;1.00;;
7273;SDS011;3678;60.002;17.846;2022-09-27T08:19:25;4.40;;;1.80;;
7273;SDS011;3678;60.002;17.846;2022-09-27T08:21:52;1.90;;;1.07;;
7273;SDS011;3678;60.002;17.846;2022-09-27T08:24:20;3.07;;;1.07;;
7273;SDS011;3678;60.002;17.846;2022-09-27T08:26:47;4.13;;;1.20;;
7273;SDS011;3678;60.002;17.846;2022-09-27T08:29:15;1.33;;;1.00;;
7273;SDS011;3678;60.002;17.846;2022-09-27T08:31:42;2.73;;;1.40;;
7273;SDS011;3678;60.002;17.846;2022-09-27T08:34:10;2.53;;;1.53;;
7273;SDS011;3678;60.002;17.846;2022-09-27T08:36:37;5.47;;;1.40;;
7273;SDS011;3678;60.002;17.846;2022-09-27T08:39:04;4.97;;;1.60;;
7273;SDS011;3678;60.002;17.846;2022-09-27T08:41:34;4.50;;;1.40;;
7273;SDS011;3678;60.002;17.846;2022-09-27T08:44:11;3.13;;;1.33;;
7273;SDS011;3678;60.002;17.846;2022-09-27T08:46:43;4.07;;;1.30;;
7273;SDS011;3678;60.002;17.846;2022-09-27T08:49:14;3.47;;;1.23;;
7273;SDS011;3678;60.002;17.846;2022-09-27T08:51:44;3.73;;;1.20;;
7273;SDS011;3678;60.002;17.846;2022-09-27T08:54:15;2.97;;;1.10;;
7273;SDS011;3678;60.002;17.846;2022-09-27T08:56:44;4.30;;;1.10;;
7273;SDS011;3678;60.002;17.846;2022-09-27T08:59:13;3.63;;;1.23;;
7273;SDS011;3678;60.002;17.846;2022-09-27T09:01:47;2.90;;;1.20;;
7273;SDS011;3678;60.002;17.846;2022-09-27T09:04:22;2.83;;;1.03;;
7273;SDS011;3678;60.002;17.846;2022-09-27T09:06:52;5.33;;;1.77;;
7273;SDS011;3678;60.002;17.846;2022-09-27T09:09:23;3.60;;;0.90;;
7273;SDS011;3678;60.002;17.846;2022-09-27T09:11:55;1.73;;;1.10;;
7273;SDS011;3678;60.002;17.846;2022-09-27T09:14:46;1.77;;;0.93;;
7273;SDS011;3678;60.002;17.846;2022-09-27T09:17:23;3.10;;;1.30;;
7273;SDS011;3678;60.002;17.846;2022-09-27T09:19:58;3.30;;;0.93;;
7273;SDS011;3678;60.002;17.846;2022-09-27T09:22:34;2.50;;;0.90;;
7273;SDS011;3678;60.002;17.846;2022-09-27T09:25:06;2.50;;;1.20;;
7273;SDS011;3678;60.002;17.846;2022-09-27T09:27:41;2.07;;;1.00;;
7273;SDS011;3678;60.002;17.846;2022-09-27T09:30:18;4.23;;;1.20;;
7273;SDS011;3678;60.002;17.846;2022-09-27T09:32:53;2.13;;;1.07;;
7273;SDS011;3678;60.002;17.846;2022-09-27T09:35:24;2.40;;;1.03;;
7273;SDS011;3678;60.002;17.846;2022-09-27T09:37:52;2.63;;;1.20;;
7273;SDS011;3678;60.002;17.846;2022-09-27T09:40:22;3.63;;;1.20;;
7273;SDS011;3678;60.002;17.846;2022-09-27T09:42:51;2.53;;;1.23;;
7273;SDS011;3678;60.002;17.846;2022-09-27T09:45:21;4.40;;;1.30;;
7273;SDS011;3678;60.002;17.846;2022-09-27T09:47:54;3.60;;;1.37;;
7273;SDS011;3678;60.002;17.846;2022-09-27T09:50:24;2.17;;;1.37;;
7273;SDS011;3678;60.002;17.846;2022-09-27T09:52:53;3.20;;;1.20;;
7273;SDS011;3678;60.002;17.846;2022-09-27T09:55:24;3.37;;;1.13;;
7273;SDS011;3678;60.002;17.846;2022-09-27T09:57:55;3.43;;;1.30;;
7273;SDS011;3678;60.002;17.846;2022-09-27T10:00:25;3.50;;;1.53;;
7273;SDS011;3678;60.002;17.846;2022-09-27T10:02:54;5.53;;;1.33;;
7273;SDS011;3678;60.002;17.846;2022-09-27T10:05:24;6.33;;;1.47;;
7273;SDS011;3678;60.002;17.846;2022-09-27T10:07:52;2.70;;;1.43;;
7273;SDS011;3678;60.002;17.846;2022-09-27T10:10:21;4.80;;;1.88;;
7273;SDS011;3678;60.002;17.846;2022-09-27T10:12:48;3.00;;;1.30;;
7273;SDS011;3678;60.002;17.846;2022-09-27T10:15:16;4.27;;;1.87;;
7273;SDS011;3678;60.002;17.846;2022-09-27T10:17:45;3.17;;;1.80;;
7273;SDS011;3678;60.002;17.846;2022-09-27T10:20:18;3.70;;;1.80;;
7273;SDS011;3678;60.002;17.846;2022-09-27T10:22:48;3.03;;;1.70;;
7273;SDS011;3678;60.002;17.846;2022-09-27T10:25:19;7.77;;;2.40;;
7273;SDS011;3678;60.002;17.846;2022-09-27T10:27:47;5.83;;;2.30;;
7273;SDS011;3678;60.002;17.846;2022-09-27T10:30:22;5.37;;;2.07;;
7273;SDS011;3678;60.002;17.846;2022-09-27T10:32:51;5.27;;;2.50;;
7273;SDS011;3678;60.002;17.846;2022-09-27T10:35:31;3.83;;;2.53;;
7273;SDS011;3678;60.002;17.846;2022-09-27T10:38:09;4.57;;;2.97;;
7273;SDS011;3678;60.002;17.846;2022-09-27T10:40:39;3.33;;;2.67;;
7273;SDS011;3678;60.002;17.846;2022-09-27T10:43:16;7.27;;;3.53;;
7273;SDS011;3678;60.002;17.846;2022-09-27T10:45:49;6.05;;;3.00;;
7273;SDS011;3678;60.002;17.846;2022-09-27T10:48:21;3.47;;;3.00;;
7273;SDS011;3678;60.002;17.846;2022-09-27T10:50:56;5.20;;;3.27;;
7273;SDS011;3678;60.002;17.846;2022-09-27T10:53:24;5.30;;;3.07;;
7273;SDS011;3678;60.002;17.846;2022-09-27T10:55:52;3.70;;;3.27;;
7273;SDS011;3678;60.002;17.846;2022-09-27T10:58:22;5.80;;;3.20;;
7273;SDS011;3678;60.002;17.846;2022-09-27T11:00:55;4.50;;;3.57;;
7273;SDS011;3678;60.002;17.846;2022-09-27T11:03:25;5.87;;;3.80;;
7273;SDS011;3678;60.002;17.846;2022-09-27T11:05:53;4.13;;;3.73;;
7273;SDS011;3678;60.002;17.846;2022-09-27T11:08:29;5.77;;;4.07;;
7273;SDS011;3678;60.002;17.846;2022-09-27T11:11:00;4.20;;;3.80;;
7273;SDS011;3678;60.002;17.846;2022-09-27T11:13:28;4.63;;;3.57;;
7273;SDS011;3678;60.002;17.846;2022-09-27T11:16:05;4.63;;;3.77;;
7273;SDS011;3678;60.002;17.846;2022-09-27T11:18:39;4.80;;;4.30;;
7273;SDS011;3678;60.002;17.846;2022-09-27T11:21:12;4.37;;;3.67;;
7273;SDS011;3678;60.002;17.846;2022-09-27T11:23:49;4.50;;;3.87;;
7273;SDS011;3678;60.002;17.846;2022-09-27T11:26:25;4.60;;;4.20;;
7273;SDS011;3678;60.002;17.846;2022-09-27T11:28:58;6.07;;;4.87;;
7273;SDS011;3678;60.002;17.846;2022-09-27T11:31:30;5.87;;;5.30;;
7273;SDS011;3678;60.002;17.846;2022-09-27T11:34:17;7.17;;;5.13;;
7273;SDS011;3678;60.002;17.846;2022-09-27T11:36:53;6.47;;;5.70;;
7273;SDS011;3678;60.002;17.846;2022-09-27T11:39:25;6.53;;;5.93;;
7273;SDS011;3678;60.002;17.846;2022-09-27T11:42:00;7.97;;;6.50;;
7273;SDS011;3678;60.002;17.846;2022-09-27T11:44:32;8.77;;;7.33;;
7273;SDS011;3678;60.002;17.846;2022-09-27T11:47:04;8.33;;;7.47;;
7273;SDS011;3678;60.002;17.846;2022-09-27T11:49:39;8.63;;;7.73;;
7273;SDS011;3678;60.002;17.846;2022-09-27T11:52:18;10.73;;;7.40;;
7273;SDS011;3678;60.002;17.846;2022-09-27T11:54:53;11.20;;;8.40;;
7273;SDS011;3678;60.002;17.846;2022-09-27T11:57:26;9.40;;;7.90;;
7273;SDS011;3678;60.002;17.846;2022-09-27T12:00:03;11.47;;;8.57;;
7273;SDS011;3678;60.002;17.846;2022-09-27T12:02:51;13.60;;;10.50;;
7273;SDS011;3678;60.002;17.846;2022-09-27T12:05:23;9.87;;;8.83;;
7273;SDS011;3678;60.002;17.846;2022-09-27T12:07:53;10.40;;;8.57;;
7273;SDS011;3678;60.002;17.846;2022-09-27T12:10:26;12.87;;;9.10;;
7273;SDS011;3678;60.002;17.846;2022-09-27T12:12:54;10.83;;;9.70;;
7273;SDS011;3678;60.002;17.846;2022-09-27T12:15:23;10.97;;;9.83;;
7273;SDS011;3678;60.002;17.846;2022-09-27T12:17:53;9.63;;;8.70;;
7273;SDS011;3678;60.002;17.846;2022-09-27T12:20:22;12.87;;;8.93;;
7273;SDS011;3678;60.002;17.846;2022-09-27T12:22:52;10.27;;;8.23;;
7273;SDS011;3678;60.002;17.846;2022-09-27T12:25:21;10.13;;;8.07;;
7273;SDS011;3678;60.002;17.846;2022-09-27T12:27:51;9.77;;;8.77;;
7273;SDS011;3678;60.002;17.846;2022-09-27T12:30:20;10.23;;;8.30;;
7273;SDS011;3678;60.002;17.846;2022-09-27T12:32:50;13.27;;;8.90;;
7273;SDS011;3678;60.002;17.846;2022-09-27T12:35:20;9.37;;;8.23;;
7273;SDS011;3678;60.002;17.846;2022-09-27T12:37:49;9.40;;;8.37;;
7273;SDS011;3678;60.002;17.846;2022-09-27T12:40:19;13.60;;;9.57;;
7273;SDS011;3678;60.002;17.846;2022-09-27T12:42:49;11.13;;;9.20;;
7273;SDS011;3678;60.002;17.846;2022-09-27T12:45:18;12.77;;;9.33;;
7273;SDS011;3678;60.002;17.846;2022-09-27T12:47:53;9.30;;;8.37;;
7273;SDS011;3678;60.002;17.846;2022-09-27T12:50:24;11.13;;;7.90;;
7273;SDS011;3678;60.002;17.846;2022-09-27T12:52:57;8.33;;;7.00;;
7273;SDS011;3678;60.002;17.846;2022-09-27T12:55:38;13.27;;;7.83;;
7273;SDS011;3678;60.002;17.846;2022-09-27T12:58:16;12.20;;;8.03;;
7273;SDS011;3678;60.002;17.846;2022-09-27T13:00:52;9.60;;;8.17;;
7273;SDS011;3678;60.002;17.846;2022-09-27T13:03:25;11.60;;;8.00;;
7273;SDS011;3678;60.002;17.846;2022-09-27T13:06:03;12.90;;;8.37;;
7273;SDS011;3678;60.002;17.846;2022-09-27T13:11:19;9.83;;;7.77;;
7273;SDS011;3678;60.002;17.846;2022-09-27T13:13:48;9.47;;;7.50;;
7273;SDS011;3678;60.002;17.846;2022-09-27T13:16:17;10.83;;;9.07;;
7273;SDS011;3678;60.002;17.846;2022-09-27T13:18:54;9.20;;;8.30;;
7273;SDS011;3678;60.002;17.846;2022-09-27T13:26:53;15.63;;;10.20;;
7273;SDS011;3678;60.002;17.846;2022-09-27T13:29:29;14.67;;;9.80;;
7273;SDS011;3678;60.002;17.846;2022-09-27T13:32:02;12.00;;;10.77;;
7273;SDS011;3678;60.002;17.846;2022-09-27T13:34:36;13.07;;;10.80;;
7273;SDS011;3678;60.002;17.846;2022-09-27T13:39:46;14.00;;;10.47;;
7273;SDS011;3678;60.002;17.846;2022-09-27T13:42:16;11.17;;;9.87;;
7273;SDS011;3678;60.002;17.846;2022-09-27T13:44:57;11.97;;;9.90;;
7273;SDS011;3678;60.002;17.846;2022-09-27T13:47:30;12.57;;;10.20;;
7273;SDS011;3678;60.002;17.846;2022-09-27T13:50:02;11.50;;;9.00;;
7273;SDS011;3678;60.002;17.846;2022-09-27T13:52:31;12.20;;;9.80;;
7273;SDS011;3678;60.002;17.846;2022-09-27T13:54:59;14.87;;;10.53;;
7273;SDS011;3678;60.002;17.846;2022-09-27T14:00:15;13.27;;;11.10;;
7273;SDS011;3678;60.002;17.846;2022-09-27T14:02:48;11.93;;;10.63;;
7273;SDS011;3678;60.002;17.846;2022-09-27T14:05:19;14.87;;;11.40;;
7273;SDS011;3678;60.002;17.846;2022-09-27T14:07:47;13.60;;;10.87;;
7273;SDS011;3678;60.002;17.846;2022-09-27T14:10:17;15.07;;;10.80;;
7273;SDS011;3678;60.002;17.846;2022-09-27T14:12:45;14.93;;;11.10;;
7273;SDS011;3678;60.002;17.846;2022-09-27T14:15:16;14.90;;;11.50;;
7273;SDS011;3678;60.002;17.846;2022-09-27T14:17:44;14.23;;;12.40;;
7273;SDS011;3678;60.002;17.846;2022-09-27T14:22:55;13.50;;;11.03;;
7273;SDS011;3678;60.002;17.846;2022-09-27T14:25:22;13.87;;;10.30;;
7273;SDS011;3678;60.002;17.846;2022-09-27T14:27:49;12.63;;;10.50;;
7273;SDS011;3678;60.002;17.846;2022-09-27T14:30:17;12.43;;;11.13;;
7273;SDS011;3678;60.002;17.846;2022-09-27T14:32:45;13.70;;;11.10;;
7273;SDS011;3678;60.002;17.846;2022-09-27T14:35:13;13.10;;;10.80;;
7273;SDS011;3678;60.002;17.846;2022-09-27T14:37:59;14.07;;;11.20;;
7273;SDS011;3678;60.002;17.846;2022-09-27T14:40:27;12.67;;;11.20;;
7273;SDS011;3678;60.002;17.846;2022-09-27T14:42:57;12.97;;;10.80;;
7273;SDS011;3678;60.002;17.846;2022-09-27T14:45:25;14.87;;;10.93;;
7273;SDS011;3678;60.002;17.846;2022-09-27T14:47:54;13.07;;;10.53;;
7273;SDS011;3678;60.002;17.846;2022-09-27T14:50:23;14.47;;;10.20;;
7273;SDS011;3678;60.002;17.846;2022-09-27T14:52:52;12.33;;;10.53;;
7273;SDS011;3678;60.002;17.846;2022-09-27T14:55:23;12.53;;;9.83;;
7273;SDS011;3678;60.002;17.846;2022-09-27T14:57:52;11.43;;;10.30;;
7273;SDS011;3678;60.002;17.846;2022-09-27T15:00:20;10.70;;;9.57;;
7273;SDS011;3678;60.002;17.846;2022-09-27T15:02:48;12.20;;;9.83;;
7273;SDS011;3678;60.002;17.846;2022-09-27T15:05:19;11.30;;;9.70;;
7273;SDS011;3678;60.002;17.846;2022-09-27T15:07:48;10.43;;;9.33;;
7273;SDS011;3678;60.002;17.846;2022-09-27T15:10:16;14.87;;;9.27;;
7273;SDS011;3678;60.002;17.846;2022-09-27T15:12:46;12.07;;;9.97;;
7273;SDS011;3678;60.002;17.846;2022-09-27T15:15:14;14.23;;;8.97;;
7273;SDS011;3678;60.002;17.846;2022-09-27T15:17:43;10.93;;;9.30;;
7273;SDS011;3678;60.002;17.846;2022-09-27T15:20:18;14.00;;;8.87;;
7273;SDS011;3678;60.002;17.846;2022-09-27T15:22:46;9.83;;;8.70;;
7273;SDS011;3678;60.002;17.846;2022-09-27T15:25:18;10.83;;;8.40;;
7273;SDS011;3678;60.002;17.846;2022-09-27T15:27:48;10.47;;;8.50;;